Time;durP1;ratioP1;P1;durP2;ratioP2;P2;SDS_P1;SDS_P2;PMS_P1;PMS_P2;Temp;Humidity;BMP_temperature;BMP_pressure;BME280_temperature;BME280_humidity;BME280_pressure;Samples;Min_cycle;Max_cycle;Signal;HPM_P1;HPM_P2
2023/07/06 00:01:31;;;;;;;7.70;2.95;;;19.80;84.00;;;;;;7377709;19;20082;-73
2023/07/06 00:03:59;;;;;;;8.85;3.58;;;19.80;84.10;;;;;;7379787;19;20704;-73
2023/07/06 00:06:28;;;;;;;5.00;3.03;;;19.70;84.00;;;;;;7379566;19;20083;-72
2023/07/06 00:08:57;;;;;;;4.60;2.92;;;19.70;84.00;;;;;;7379188;19;20031;-72
2023/07/06 00:11:35;;;;;;;9.25;3.20;;;19.80;83.90;;;;;;7400288;19;20059;-72
2023/07/06 00:14:07;;;;;;;6.75;3.17;;;19.80;83.90;;;;;;7379049;19;20097;-72
2023/07/06 00:16:41;;;;;;;5.70;3.67;;;19.80;83.90;;;;;;7381481;19;20003;-73
2023/07/06 00:19:47;;;;;;;10.23;3.28;;;19.80;84.00;;;;;;7382716;19;20027;-72
2023/07/06 00:22:16;;;;;;;8.27;3.50;;;19.70;83.60;;;;;;7382583;19;20019;-71
2023/07/06 00:24:46;;;;;;;10.48;3.80;;;19.70;83.60;;;;;;7380639;19;20006;-72
2023/07/06 00:27:15;;;;;;;9.43;3.95;;;19.70;83.60;;;;;;7381198;19;20010;-72
2023/07/06 00:29:56;;;;;;;17.48;6.53;;;19.70;83.80;;;;;;7381128;19;20007;-72
2023/07/06 00:32:32;;;;;;;15.95;6.63;;;19.70;83.50;;;;;;7402568;19;20018;-72
2023/07/06 00:35:01;;;;;;;10.75;4.68;;;19.60;84.20;;;;;;7380151;19;20386;-72
2023/07/06 00:37:30;;;;;;;12.40;4.38;;;19.60;83.50;;;;;;7382272;19;20007;-72
2023/07/06 00:39:59;;;;;;;6.72;3.67;;;19.60;83.60;;;;;;7382190;19;20010;-72
2023/07/06 00:42:29;;;;;;;7.70;3.72;;;19.60;83.50;;;;;;7381035;19;20273;-73
2023/07/06 00:45:01;;;;;;;11.07;3.65;;;19.50;83.70;;;;;;7378163;19;20358;-72
2023/07/06 00:47:38;;;;;;;7.22;3.75;;;19.40;84.30;;;;;;7396373;19;20003;-72
2023/07/06 00:50:11;;;;;;;12.85;3.78;;;19.30;84.40;;;;;;7377558;19;20007;-73
2023/07/06 00:52:48;;;;;;;13.05;4.00;;;19.30;84.80;;;;;;7377188;19;20026;-73
2023/07/06 00:55:19;;;;;;;7.10;4.40;;;19.20;85.30;;;;;;7378382;19;20015;-73
2023/07/06 00:57:51;;;;;;;;;;;19.10;86.30;;;;;;7378981;19;20440;-73
2023/07/06 01:00:21;;;;;;;12.57;4.07;;;19.10;85.70;;;;;;7377329;19;19911;-73
2023/07/06 01:02:56;;;;;;;7.32;3.55;;;19.00;85.80;;;;;;7379062;19;20034;-73
2023/07/06 01:05:28;;;;;;;5.63;3.40;;;19.00;85.90;;;;;;7398954;19;20015;-73
2023/07/06 01:08:03;;;;;;;9.32;3.70;;;19.10;85.60;;;;;;7376265;19;20006;-73
2023/07/06 01:10:33;;;;;;;7.70;3.60;;;19.00;85.70;;;;;;7377229;19;20091;-73
2023/07/06 01:13:02;;;;;;;10.80;3.33;;;19.10;85.90;;;;;;7379573;19;20007;-72
2023/07/06 01:15:33;;;;;;;10.35;4.00;;;19.10;85.90;;;;;;7385447;19;20086;-73
2023/07/06 01:18:10;;;;;;;11.27;3.92;;;19.10;85.80;;;;;;7385460;19;19999;-73
2023/07/06 01:20:44;;;;;;;11.93;4.22;;;19.10;85.60;;;;;;7406636;19;20023;-73
2023/07/06 01:23:52;;;;;;;8.05;3.90;;;19.10;85.50;;;;;;7381947;19;20023;-73
2023/07/06 01:26:49;;;;;;;7.03;4.05;;;19.20;84.90;;;;;;7384252;19;20007;-72
2023/07/06 01:30:03;;;;;;;7.68;3.88;;;19.10;84.60;;;;;;7383936;19;20062;-72
2023/07/06 01:32:38;;;;;;;7.93;3.17;;;19.10;84.80;;;;;;7382751;19;20002;-71
2023/07/06 01:35:15;;;;;;;17.80;3.92;;;19.10;84.90;;;;;;7382992;19;20058;-72
2023/07/06 01:37:46;;;;;;;10.15;3.70;;;19.10;85.00;;;;;;7395055;19;20006;-72
2023/07/06 01:40:15;;;;;;;6.17;3.80;;;19.10;85.00;;;;;;7390608;19;20006;-72
2023/07/06 01:42:44;;;;;;;12.15;3.95;;;19.00;85.20;;;;;;7384714;19;20023;-72
2023/07/06 01:45:17;;;;;;;7.15;3.55;;;19.00;85.60;;;;;;7383388;19;20003;-72
2023/07/06 01:47:50;;;;;;;7.07;3.78;;;18.90;85.60;;;;;;7380389;19;20006;-73
2023/07/06 01:50:23;;;;;;;6.45;3.60;;;18.90;85.80;;;;;;7401522;19;20013;-71
2023/07/06 01:53:07;;;;;;;13.52;3.88;;;18.80;85.80;;;;;;7382105;19;20070;-72
2023/07/06 01:55:43;;;;;;;10.48;3.70;;;18.80;85.90;;;;;;7382000;19;20009;-72
2023/07/06 01:58:18;;;;;;;7.50;3.65;;;18.70;85.60;;;;;;7382828;19;20007;-73
2023/07/06 02:00:53;;;;;;;7.38;3.10;;;18.70;85.80;;;;;;7383102;19;20014;-73
2023/07/06 02:03:25;;;;;;;10.68;3.90;;;18.70;86.00;;;;;;7381265;19;20006;-73
2023/07/06 02:05:55;;;;;;;8.27;3.72;;;18.60;86.20;;;;;;7381190;19;20035;-71
2023/07/06 02:08:25;;;;;;;9.93;4.18;;;18.50;86.80;;;;;;7402228;19;20358;-74
2023/07/06 02:10:54;;;;;;;11.35;4.55;;;18.40;87.10;;;;;;7382705;19;20007;-73
2023/07/06 02:13:23;;;;;;;8.88;4.22;;;18.30;87.50;;;;;;7384820;19;20002;-73
2023/07/06 02:15:52;;;;;;;14.93;4.28;;;18.30;87.70;;;;;;7382448;19;20385;-72
2023/07/06 02:18:21;;;;;;;10.20;4.70;;;18.30;87.80;;;;;;7382192;19;20007;-72
2023/07/06 02:20:52;;;;;;;12.57;3.83;;;18.20;88.00;;;;;;7381554;19;20007;-73
2023/07/06 02:23:20;;;;;;;7.80;3.90;;;18.30;88.20;;;;;;7399362;19;20035;-72
2023/07/06 02:25:53;;;;;;;7.82;3.78;;;18.30;88.20;;;;;;7381175;19;20003;-72
2023/07/06 02:28:23;;;;;;;6.75;3.78;;;18.40;88.10;;;;;;7380118;19;20007;-72
2023/07/06 02:30:53;;;;;;;9.95;3.72;;;18.40;88.10;;;;;;7381721;19;20002;-72
2023/07/06 02:33:22;;;;;;;8.02;4.00;;;18.50;88.00;;;;;;7381155;19;20515;-72
2023/07/06 02:35:53;;;;;;;9.63;3.80;;;18.50;87.60;;;;;;7380984;19;20027;-72
2023/07/06 02:38:22;;;;;;;8.75;3.90;;;18.50;87.70;;;;;;7402906;19;20362;-71
2023/07/06 02:40:52;;;;;;;9.85;3.65;;;18.60;87.60;;;;;;7380941;19;20006;-72
2023/07/06 02:43:21;;;;;;;9.60;3.63;;;18.60;87.60;;;;;;7380691;19;20003;-73
2023/07/06 02:45:50;;;;;;;10.15;3.50;;;18.60;87.10;;;;;;7381041;19;20009;-72
2023/07/06 02:48:19;;;;;;;9.73;3.38;;;18.50;87.10;;;;;;7381621;19;20003;-72
2023/07/06 02:50:53;;;;;;;11.32;3.53;;;18.50;87.40;;;;;;7379308;19;20006;-73
2023/07/06 02:53:22;;;;;;;9.57;3.65;;;18.50;87.70;;;;;;7403113;19;20018;-73
2023/07/06 02:55:51;;;;;;;6.53;3.53;;;18.50;87.60;;;;;;7380138;19;20015;-73
2023/07/06 02:58:20;;;;;;;11.02;3.50;;;18.50;87.60;;;;;;7381042;19;20115;-73
2023/07/06 03:00:51;;;;;;;6.57;3.22;;;18.50;87.60;;;;;;7382709;19;20010;-73
2023/07/06 03:03:20;;;;;;;6.93;3.67;;;18.50;87.50;;;;;;7379521;19;20016;-73
2023/07/06 03:05:49;;;;;;;6.28;3.55;;;18.60;87.30;;;;;;7380350;19;20031;-72
2023/07/06 03:08:21;;;;;;;16.30;3.60;;;18.60;87.10;;;;;;7400374;19;20002;-72
2023/07/06 03:10:53;;;;;;;8.95;3.47;;;18.60;86.80;;;;;;7380162;19;20373;-73
2023/07/06 03:13:21;;;;;;;7.97;3.58;;;18.60;87.00;;;;;;7379897;19;19999;-73
2023/07/06 03:15:53;;;;;;;10.70;4.07;;;18.50;87.00;;;;;;7381222;19;20070;-72
2023/07/06 03:18:22;;;;;;;7.40;3.95;;;18.60;86.90;;;;;;7379792;19;20011;-73
2023/07/06 03:20:51;;;;;;;8.70;4.00;;;18.60;86.70;;;;;;7377916;19;20023;-73
2023/07/06 03:23:23;;;;;;;6.70;4.43;;;18.60;86.70;;;;;;7399762;19;20059;-73
2023/07/06 03:25:53;;;;;;;14.30;8.50;;;18.50;86.60;;;;;;7379357;19;20361;-72
2023/07/06 03:28:23;;;;;;;31.02;13.80;;;18.50;86.50;;;;;;7378149;19;20006;-71
2023/07/06 03:30:59;;;;;;;17.85;8.90;;;18.50;86.60;;;;;;7379438;19;20067;-73
2023/07/06 03:33:28;;;;;;;11.48;4.57;;;18.50;86.30;;;;;;7378917;19;20002;-71
2023/07/06 03:35:58;;;;;;;16.35;4.97;;;18.50;86.20;;;;;;7375869;19;20063;-73
2023/07/06 03:38:30;;;;;;;14.88;4.30;;;18.40;86.40;;;;;;7400883;19;20006;-72
2023/07/06 03:41:03;;;;;;;9.32;3.60;;;18.40;86.60;;;;;;7378858;19;20097;-72
2023/07/06 03:43:32;;;;;;;5.53;3.05;;;18.40;86.60;;;;;;7378696;19;20010;-73
2023/07/06 03:46:03;;;;;;;8.27;3.33;;;18.50;86.10;;;;;;7379325;19;20258;-73
2023/07/06 03:48:32;;;;;;;11.68;3.97;;;18.50;85.80;;;;;;7384892;19;20038;-72
2023/07/06 03:51:04;;;;;;;9.93;3.88;;;18.50;85.70;;;;;;7392632;19;20023;-73
2023/07/06 03:53:36;;;;;;;7.65;3.72;;;18.50;85.70;;;;;;7399677;19;20291;-73
2023/07/06 03:56:05;;;;;;;7.35;3.53;;;18.40;85.90;;;;;;7378500;19;20070;-72
2023/07/06 03:58:34;;;;;;;12.73;3.75;;;18.40;85.80;;;;;;7378096;19;20075;-72
2023/07/06 04:01:03;;;;;;;22.45;11.70;;;18.30;86.00;;;;;;7378391;19;20006;-72
2023/07/06 04:03:33;;;;;;;7.50;4.05;;;18.30;86.10;;;;;;7378548;19;20400;-72
2023/07/06 04:06:04;;;;;;;12.00;3.75;;;18.30;86.20;;;;;;7379353;19;20815;-72
2023/07/06 04:08:36;;;;;;;9.98;4.32;;;18.30;86.30;;;;;;7398047;19;20292;-72
2023/07/06 04:11:04;;;;;;;9.23;3.58;;;18.30;86.10;;;;;;7377763;19;20007;-72
2023/07/06 04:13:33;;;;;;;7.25;3.72;;;18.30;86.20;;;;;;7378581;19;20362;-72
2023/07/06 04:16:02;;;;;;;8.75;3.83;;;18.30;87.00;;;;;;7378713;19;20003;-72
2023/07/06 04:18:33;;;;;;;8.60;3.60;;;18.20;86.10;;;;;;7378504;19;20019;-72
2023/07/06 04:21:03;;;;;;;8.80;4.10;;;18.20;86.40;;;;;;7378780;19;19995;-72
2023/07/06 04:23:35;;;;;;;11.85;4.07;;;18.20;86.70;;;;;;7397845;19;20027;-72
2023/07/06 04:26:05;;;;;;;7.15;3.65;;;18.20;86.70;;;;;;7377248;19;20002;-72
2023/07/06 04:28:33;;;;;;;15.82;3.70;;;18.20;86.90;;;;;;7376250;19;20087;-73
2023/07/06 04:31:02;;;;;;;6.68;3.33;;;18.20;86.90;;;;;;7377903;19;20023;-72
2023/07/06 04:33:31;;;;;;;6.50;3.40;;;18.20;86.50;;;;;;7377862;19;20003;-72
2023/07/06 04:36:02;;;;;;;12.68;3.92;;;18.30;86.30;;;;;;7378225;19;20006;-73
2023/07/06 04:38:31;;;;;;;10.15;3.83;;;18.30;86.20;;;;;;7397458;19;20007;-72
2023/07/06 04:41:02;;;;;;;13.20;4.05;;;18.30;86.10;;;;;;7376765;19;20017;-72
2023/07/06 04:43:31;;;;;;;;;;;18.20;86.40;;;;;;7377941;19;20013;-72
2023/07/06 04:45:59;;;;;;;12.25;3.67;;;18.30;86.60;;;;;;7377212;19;20239;-72
2023/07/06 04:48:29;;;;;;;8.77;4.13;;;18.30;86.40;;;;;;7381164;19;20002;-73
2023/07/06 04:50:58;;;;;;;15.57;4.00;;;18.20;86.50;;;;;;7385193;19;20023;-72
2023/07/06 04:53:26;;;;;;;7.00;3.42;;;18.30;86.90;;;;;;7406759;19;20007;-72
2023/07/06 04:55:56;;;;;;;7.05;3.63;;;18.30;87.20;;;;;;7385162;19;20003;-72
2023/07/06 04:58:28;;;;;;;14.98;3.75;;;18.30;87.10;;;;;;7385627;19;20007;-72
2023/07/06 05:00:57;;;;;;;11.60;3.92;;;18.30;87.20;;;;;;7384698;19;20003;-73
2023/07/06 05:03:30;;;;;;;10.88;3.88;;;18.30;87.00;;;;;;7384595;19;20082;-73
2023/07/06 05:06:04;;;;;;;9.43;3.58;;;18.40;87.30;;;;;;7386401;19;20017;-73
2023/07/06 05:08:36;;;;;;;10.95;4.45;;;18.40;87.40;;;;;;7407965;19;20042;-72
2023/07/06 05:11:05;;;;;;;13.15;4.15;;;18.40;87.60;;;;;;7386084;19;20233;-72
2023/07/06 05:13:37;;;;;;;9.27;4.15;;;18.40;87.50;;;;;;7385657;19;20057;-73
2023/07/06 05:16:05;;;;;;;;;;;18.40;87.50;;;;;;7384854;19;20022;-73
2023/07/06 05:18:34;;;;;;;12.98;3.92;;;18.50;87.60;;;;;;7384227;19;19995;-72
2023/07/06 05:21:02;;;;;;;9.10;4.10;;;18.50;87.50;;;;;;7381667;19;20018;-72
2023/07/06 05:23:31;;;;;;;8.07;4.07;;;18.50;87.60;;;;;;7402747;19;20283;-72
2023/07/06 05:26:04;;;;;;;6.82;4.15;;;18.50;87.60;;;;;;7382965;19;20063;-73
2023/07/06 05:28:36;;;;;;;13.65;3.88;;;18.50;87.70;;;;;;7382304;19;20003;-72
2023/07/06 05:31:06;;;;;;;12.38;4.28;;;18.50;87.80;;;;;;7383087;19;20394;-72
2023/07/06 05:33:35;;;;;;;10.13;4.47;;;18.50;88.00;;;;;;7381770;19;20007;-73
2023/07/06 05:36:04;;;;;;;6.57;3.90;;;18.60;88.30;;;;;;7381244;19;20014;-73
2023/07/06 05:38:32;;;;;;;12.60;4.85;;;18.60;88.30;;;;;;7403407;19;20018;-73
2023/07/06 05:41:05;;;;;;;9.60;4.63;;;18.60;88.50;;;;;;7382867;19;20020;-72
2023/07/06 05:43:36;;;;;;;8.85;4.32;;;18.70;88.50;;;;;;7382481;19;20234;-73
2023/07/06 05:46:05;;;;;;;12.02;4.28;;;18.70;88.80;;;;;;7400024;19;20031;-72
2023/07/06 05:48:35;;;;;;;9.70;4.53;;;18.70;89.00;;;;;;7389084;19;20020;-73
2023/07/06 05:51:04;;;;;;;10.67;4.47;;;18.80;88.90;;;;;;7383799;19;20007;-73
2023/07/06 05:53:33;;;;;;;10.77;4.45;;;18.90;88.80;;;;;;7405248;19;20010;-73
2023/07/06 05:56:02;;;;;;;17.23;4.75;;;18.90;88.70;;;;;;7382007;19;20007;-73
2023/07/06 05:58:30;;;;;;;10.68;4.57;;;19.00;88.70;;;;;;7379687;19;20015;-72
2023/07/06 06:01:02;;;;;;;12.02;4.20;;;19.00;89.00;;;;;;7382136;19;20219;-73
2023/07/06 06:03:31;;;;;;;;;;;19.10;89.30;;;;;;7383072;19;20006;-73
2023/07/06 06:06:01;;;;;;;12.30;4.32;;;19.20;89.70;;;;;;7383232;19;19924;-73
2023/07/06 06:08:29;;;;;;;15.00;4.95;;;19.20;89.40;;;;;;7402806;19;20040;-73
2023/07/06 06:11:00;;;;;;;11.45;4.22;;;19.20;89.40;;;;;;7383747;19;20398;-72
2023/07/06 06:13:30;;;;;;;11.48;3.90;;;19.30;89.50;;;;;;7385742;19;20015;-72
2023/07/06 06:16:03;;;;;;;8.93;4.28;;;19.40;89.60;;;;;;7383426;19;20230;-72
2023/07/06 06:18:32;;;;;;;12.60;4.25;;;19.40;89.30;;;;;;7380358;19;20003;-73
2023/07/06 06:21:00;;;;;;;13.23;4.30;;;19.50;89.00;;;;;;7382466;19;20124;-73
2023/07/06 06:23:29;;;;;;;11.20;4.55;;;19.50;89.10;;;;;;7400932;19;20020;-73
2023/07/06 06:25:58;;;;;;;8.18;4.13;;;19.60;89.40;;;;;;7381005;19;20015;-73
2023/07/06 06:28:26;;;;;;;11.15;4.78;;;19.60;89.50;;;;;;7380772;19;20007;-73
2023/07/06 06:30:56;;;;;;;11.80;4.53;;;19.70;89.40;;;;;;7381457;19;20074;-73
2023/07/06 06:33:27;;;;;;;10.07;4.25;;;19.80;89.30;;;;;;7381104;19;20336;-73
2023/07/06 06:35:58;;;;;;;21.02;4.68;;;19.80;89.20;;;;;;7381102;19;20249;-73
2023/07/06 06:38:27;;;;;;;12.20;4.55;;;19.90;89.20;;;;;;7400072;19;20019;-73
2023/07/06 06:40:59;;;;;;;14.52;4.43;;;20.00;89.30;;;;;;7380522;19;20246;-72
2023/07/06 06:43:28;;;;;;;18.25;4.40;;;20.10;89.30;;;;;;7380942;19;20007;-72
2023/07/06 06:45:57;;;;;;;19.88;4.85;;;20.10;89.20;;;;;;7380867;19;20010;-72
2023/07/06 06:48:28;;;;;;;8.45;4.10;;;20.20;89.20;;;;;;7381447;19;20027;-72
2023/07/06 06:50:57;;;;;;;;;;;20.20;89.80;;;;;;7380586;19;20357;-72
2023/07/06 06:53:26;;;;;;;18.55;5.05;;;20.40;88.90;;;;;;7400542;19;19919;-73
2023/07/06 06:55:55;;;;;;;9.15;4.18;;;20.40;88.00;;;;;;7380069;19;20110;-73
2023/07/06 06:58:24;;;;;;;13.00;4.60;;;20.40;87.70;;;;;;7381389;19;20003;-72
2023/07/06 07:00:59;;;;;;;9.65;4.85;;;20.50;87.30;;;;;;7385681;19;20006;-72
2023/07/06 07:03:30;;;;;;;11.48;5.00;;;20.50;86.10;;;;;;7390072;19;20079;-71
2023/07/06 07:06:11;;;;;;;12.63;4.43;;;20.50;85.60;;;;;;7390460;19;20011;-72
2023/07/06 07:08:41;;;;;;;13.95;4.68;;;20.50;85.30;;;;;;7412177;19;20007;-72
2023/07/06 07:11:10;;;;;;;14.25;4.32;;;20.50;84.90;;;;;;7390032;19;20021;-72
2023/07/06 07:13:40;;;;;;;11.43;4.32;;;20.60;85.00;;;;;;7386317;19;20325;-73
2023/07/06 07:16:11;;;;;;;11.82;4.13;;;20.70;84.60;;;;;;7382378;19;20007;-72
2023/07/06 07:18:43;;;;;;;15.00;4.32;;;20.80;84.00;;;;;;7382296;19;20002;-72
2023/07/06 07:21:12;;;;;;;12.30;4.20;;;20.80;83.40;;;;;;7379486;19;20094;-72
2023/07/06 07:23:44;;;;;;;10.60;4.15;;;20.80;83.40;;;;;;7393040;19;20057;-72
2023/07/06 07:26:13;;;;;;;10.23;4.25;;;20.80;83.40;;;;;;7399907;19;20023;-72
2023/07/06 07:28:42;;;;;;;12.98;4.32;;;20.90;83.30;;;;;;7379368;19;20069;-72
2023/07/06 07:31:13;;;;;;;10.98;4.00;;;20.90;83.00;;;;;;7379662;19;20007;-72
2023/07/06 07:33:44;;;;;;;10.25;3.65;;;21.00;82.80;;;;;;7379532;19;20704;-73
2023/07/06 07:36:13;;;;;;;;;;;21.00;82.50;;;;;;7381079;19;20003;-73
2023/07/06 07:38:42;;;;;;;11.07;5.47;;;21.00;82.70;;;;;;7382533;19;19915;-72
2023/07/06 07:41:16;;;;;;;11.70;3.72;;;21.10;82.20;;;;;;7400342;19;20016;-72
2023/07/06 07:43:46;;;;;;;13.20;4.05;;;21.10;81.60;;;;;;7379478;19;20020;-71
2023/07/06 07:46:17;;;;;;;13.98;3.63;;;21.10;81.30;;;;;;7379505;19;20214;-72
2023/07/06 07:48:50;;;;;;;11.82;4.30;;;21.10;81.90;;;;;;7380433;19;20012;-72
2023/07/06 07:51:21;;;;;;;8.05;3.92;;;21.10;79.90;;;;;;7380272;19;20007;-72
2023/07/06 07:53:50;;;;;;;12.25;4.00;;;21.20;79.40;;;;;;7379698;19;20010;-72
2023/07/06 07:56:19;;;;;;;12.95;4.80;;;21.20;79.40;;;;;;7398728;19;20413;-73
2023/07/06 07:58:48;;;;;;;14.82;6.15;;;21.20;78.90;;;;;;7378249;19;20086;-73
2023/07/06 08:01:19;;;;;;;13.23;4.80;;;21.20;78.60;;;;;;7378623;19;20014;-73
2023/07/06 08:03:51;;;;;;;14.98;5.05;;;21.20;78.80;;;;;;7379333;19;20023;-73
2023/07/06 08:06:21;;;;;;;17.75;4.88;;;21.30;79.30;;;;;;7387899;19;20023;-73
2023/07/06 08:08:50;;;;;;;10.73;4.47;;;21.30;79.30;;;;;;7397395;19;20019;-73
2023/07/06 08:11:22;;;;;;;19.13;4.97;;;21.30;79.20;;;;;;7400599;19;20654;-71
2023/07/06 08:13:53;;;;;;;16.58;4.30;;;21.30;79.30;;;;;;7378558;19;20014;-72
2023/07/06 08:16:23;;;;;;;10.23;4.35;;;21.40;78.70;;;;;;7379166;19;20035;-72
2023/07/06 08:18:56;;;;;;;15.38;4.57;;;21.30;77.90;;;;;;7377746;19;20084;-72
2023/07/06 08:21:26;;;;;;;11.93;4.35;;;21.40;77.90;;;;;;7376369;19;20009;-72
2023/07/06 08:23:57;;;;;;;14.68;4.28;;;21.40;78.00;;;;;;7376505;19;20011;-72
2023/07/06 08:26:29;;;;;;;10.63;4.43;;;21.40;78.30;;;;;;7398129;19;20027;-72
2023/07/06 08:28:58;;;;;;;15.50;3.92;;;21.50;78.80;;;;;;7377869;19;20024;-73
2023/07/06 08:31:26;;;;;;;10.45;4.53;;;21.50;78.50;;;;;;7378178;19;20067;-72
2023/07/06 08:34:00;;;;;;;10.75;3.90;;;21.50;77.30;;;;;;7378064;19;19999;-73
2023/07/06 08:36:29;;;;;;;10.82;3.58;;;21.50;76.70;;;;;;7378208;19;20014;-72
2023/07/06 08:39:00;;;;;;;10.93;3.75;;;21.50;76.70;;;;;;7378132;19;20010;-72
2023/07/06 08:41:33;;;;;;;11.82;3.15;;;21.50;76.80;;;;;;7399318;19;20357;-73
2023/07/06 08:44:03;;;;;;;9.35;3.10;;;21.60;76.70;;;;;;7377943;19;20082;-73
2023/07/06 08:46:34;;;;;;;10.93;3.42;;;21.60;76.40;;;;;;7377278;19;20003;-73
2023/07/06 08:49:20;;;;;;;10.95;3.25;;;21.60;76.70;;;;;;7377764;19;20003;-72
2023/07/06 08:51:51;;;;;;;16.27;3.45;;;21.60;77.00;;;;;;7377746;19;20007;-72
2023/07/06 08:54:23;;;;;;;24.00;4.20;;;21.60;76.90;;;;;;7376177;19;20006;-72
2023/07/06 08:56:52;;;;;;;13.75;3.47;;;21.70;75.40;;;;;;7377910;19;20006;-73
2023/07/06 08:59:36;;;;;;;12.35;3.33;;;21.70;74.10;;;;;;7398747;19;20066;-73
2023/07/06 09:02:18;;;;;;;13.93;3.60;;;21.70;74.50;;;;;;7376489;19;20645;-72
2023/07/06 09:04:50;;;;;;;12.38;3.75;;;21.70;74.40;;;;;;7376550;19;19999;-72
2023/07/06 09:07:34;;;;;;;13.07;3.92;;;21.70;74.00;;;;;;7376482;19;20009;-73
2023/07/06 09:10:04;;;;;;;8.55;3.33;;;21.70;73.60;;;;;;7377895;19;20014;-73
2023/07/06 09:12:36;;;;;;;12.80;3.38;;;21.80;73.90;;;;;;7377131;19;20011;-73
2023/07/06 09:15:08;;;;;;;9.77;3.05;;;21.80;74.20;;;;;;7376753;19;20006;-72
2023/07/06 09:17:45;;;;;;;13.75;3.65;;;21.90;74.30;;;;;;7398323;19;20547;-72
2023/07/06 09:20:19;;;;;;;12.13;3.22;;;21.90;73.80;;;;;;7376458;19;20006;-72
2023/07/06 09:22:50;;;;;;;8.40;3.03;;;22.00;74.00;;;;;;7374979;19;20002;-72
2023/07/06 09:25:20;;;;;;;7.38;2.78;;;22.00;74.10;;;;;;7376622;19;20007;-72
2023/07/06 09:27:51;;;;;;;8.98;3.38;;;22.10;73.80;;;;;;7375214;19;20003;-72
2023/07/06 09:30:32;;;;;;;12.55;3.47;;;22.20;72.70;;;;;;7374348;19;20006;-72
2023/07/06 09:33:08;;;;;;;;;;;22.30;72.20;;;;;;7377749;19;19996;-72
2023/07/06 09:35:42;;;;;;;17.98;2.90;;;22.30;70.60;;;;;;7405188;19;19925;-72
2023/07/06 09:38:14;;;;;;;6.55;2.55;;;22.40;71.40;;;;;;7382936;19;20200;-72
2023/07/06 09:40:46;;;;;;;9.00;2.85;;;22.50;71.10;;;;;;7381898;19;20555;-72
2023/07/06 09:43:23;;;;;;;10.70;3.25;;;22.60;69.90;;;;;;7382283;19;20002;-73
2023/07/06 09:45:54;;;;;;;8.02;2.90;;;22.70;69.50;;;;;;7381794;19;20251;-73
2023/07/06 09:48:36;;;;;;;11.63;2.75;;;22.70;69.30;;;;;;7381825;19;20014;-73
2023/07/06 09:51:15;;;;;;;8.10;2.83;;;22.80;68.30;;;;;;7381552;19;20014;-73
2023/07/06 09:53:48;;;;;;;6.70;2.80;;;22.90;68.00;;;;;;7382980;19;20066;-72
2023/07/06 09:56:18;;;;;;;5.53;3.05;;;22.90;67.70;;;;;;7404653;19;20013;-72
2023/07/06 09:58:49;;;;;;;9.02;3.00;;;23.00;68.70;;;;;;7381844;19;20023;-72
2023/07/06 10:01:35;;;;;;;10.15;2.83;;;23.10;67.80;;;;;;7382599;19;20086;-71
2023/07/06 10:04:25;;;;;;;6.03;2.75;;;23.20;68.30;;;;;;7381966;19;20043;-72
2023/07/06 10:07:08;;;;;;;8.30;2.83;;;23.30;67.40;;;;;;7383207;19;20023;-72
2023/07/06 10:09:40;;;;;;;7.25;2.78;;;23.30;67.00;;;;;;7380955;19;20354;-73
2023/07/06 10:12:17;;;;;;;7.18;2.92;;;23.30;66.60;;;;;;7382407;19;20011;-72
2023/07/06 10:14:51;;;;;;;10.02;3.28;;;23.30;66.40;;;;;;7380228;19;20024;-72
2023/07/06 10:17:37;;;;;;;6.00;2.63;;;23.40;66.30;;;;;;7403357;19;20560;-72
2023/07/06 10:20:17;;;;;;;5.45;2.50;;;23.50;65.80;;;;;;7382970;19;20034;-73
2023/07/06 10:23:07;;;;;;;7.90;2.75;;;23.50;64.30;;;;;;7380620;19;20032;-72
2023/07/06 10:25:42;;;;;;;9.38;3.10;;;23.50;65.30;;;;;;7396713;19;20006;-73
2023/07/06 10:28:15;;;;;;;8.80;3.03;;;23.50;64.10;;;;;;7392203;19;20011;-73
2023/07/06 10:30:47;;;;;;;5.45;2.20;;;23.50;63.50;;;;;;7382585;19;20020;-73
2023/07/06 10:33:21;;;;;;;8.82;3.10;;;23.50;62.10;;;;;;7382430;19;20003;-73
2023/07/06 10:35:52;;;;;;;8.55;2.78;;;23.50;60.80;;;;;;7382461;19;20291;-72
2023/07/06 10:38:24;;;;;;;4.22;2.03;;;23.50;60.80;;;;;;7403386;19;20013;-72
2023/07/06 10:40:58;;;;;;;7.10;2.78;;;23.40;60.40;;;;;;7380623;19;20114;-73
2023/07/06 10:43:27;;;;;;;5.68;2.53;;;23.50;61.50;;;;;;7380772;19;20030;-72
2023/07/06 10:45:57;;;;;;;10.18;2.80;;;23.60;61.50;;;;;;7379396;19;20006;-72
2023/07/06 10:48:34;;;;;;;9.70;2.97;;;23.60;61.90;;;;;;7381237;19;20006;-72
2023/07/06 10:51:20;;;;;;;7.10;2.60;;;23.70;62.10;;;;;;7379628;19;20002;-72
2023/07/06 10:54:11;;;;;;;6.22;2.78;;;23.80;62.70;;;;;;7380125;19;20247;-71
2023/07/06 10:56:46;;;;;;;11.63;2.23;;;23.90;61.60;;;;;;7400938;19;20010;-72
2023/07/06 10:59:19;;;;;;;12.48;3.03;;;24.00;62.20;;;;;;7380621;19;20127;-72
2023/07/06 11:01:50;;;;;;;8.02;2.75;;;24.00;61.30;;;;;;7382979;19;20493;-72
2023/07/06 11:04:44;;;;;;;10.10;2.80;;;24.10;60.90;;;;;;7380789;19;20026;-72
2023/07/06 11:07:14;;;;;;;5.75;2.63;;;24.30;59.50;;;;;;7380525;19;20027;-72
2023/07/06 11:10:11;;;;;;;8.53;2.63;;;24.30;59.40;;;;;;7380923;19;20340;-72
2023/07/06 11:12:54;;;;;;;8.52;2.55;;;24.40;60.30;;;;;;7381408;19;20042;-72
2023/07/06 11:15:28;;;;;;;10.40;3.05;;;24.40;59.50;;;;;;7381254;19;20006;-72
2023/07/06 11:17:59;;;;;;;8.73;2.72;;;24.50;59.80;;;;;;7379593;19;20024;-72
2023/07/06 11:20:30;;;;;;;5.30;2.72;;;24.50;59.90;;;;;;7402728;19;20006;-73
2023/07/06 11:23:04;;;;;;;8.80;2.47;;;24.60;58.40;;;;;;7379759;19;20010;-72
2023/07/06 11:25:39;;;;;;;8.18;2.30;;;24.60;59.10;;;;;;7380636;19;20007;-74
2023/07/06 11:28:13;;;;;;;8.30;2.90;;;24.70;59.40;;;;;;7381610;19;20381;-73
2023/07/06 11:30:52;;;;;;;6.47;2.70;;;24.80;58.80;;;;;;7381099;19;20011;-72
2023/07/06 11:33:30;;;;;;;5.85;2.50;;;24.90;58.60;;;;;;7382784;19;20006;-72
2023/07/06 11:36:06;;;;;;;12.82;3.05;;;24.90;58.10;;;;;;7379841;19;20006;-72
2023/07/06 11:38:51;;;;;;;8.65;2.53;;;25.00;57.80;;;;;;7400621;19;20007;-73
2023/07/06 11:41:35;;;;;;;8.52;2.40;;;25.00;57.90;;;;;;7381025;19;20006;-72
2023/07/06 11:44:28;;;;;;;7.22;2.72;;;25.10;58.00;;;;;;7387291;19;20019;-72
2023/07/06 11:47:27;;;;;;;12.05;2.30;;;25.20;57.60;;;;;;7388292;19;20013;-72
2023/07/06 11:49:59;;;;;;;3.35;2.35;;;25.30;56.90;;;;;;7388167;19;20014;-72
2023/07/06 11:52:32;;;;;;;6.40;2.53;;;25.40;56.40;;;;;;7383676;19;20003;-73
2023/07/06 11:55:15;;;;;;;8.35;2.70;;;25.50;56.30;;;;;;7380569;19;20002;-72
2023/07/06 11:57:54;;;;;;;8.35;2.83;;;25.50;56.70;;;;;;7377765;19;20026;-72
2023/07/06 12:00:48;;;;;;;9.73;3.08;;;25.50;56.80;;;;;;7378674;19;20373;-72
2023/07/06 12:03:19;;;;;;;4.82;2.33;;;25.60;57.00;;;;;;7377453;19;20398;-72
2023/07/06 12:05:51;;;;;;;8.57;2.45;;;25.60;56.00;;;;;;7377156;19;20058;-72
2023/07/06 12:08:23;;;;;;;8.00;2.63;;;25.70;56.50;;;;;;7400258;19;20010;-73
2023/07/06 12:10:54;;;;;;;9.93;3.20;;;25.80;56.70;;;;;;7377650;19;20078;-74
2023/07/06 12:13:29;;;;;;;11.18;2.85;;;25.80;55.80;;;;;;7378684;19;20300;-73
2023/07/06 12:16:07;;;;;;;6.05;2.47;;;25.70;55.50;;;;;;7379102;19;20033;-73
2023/07/06 12:18:36;;;;;;;11.38;2.88;;;25.60;55.00;;;;;;7379052;19;20107;-72
2023/07/06 12:21:06;;;;;;;8.65;2.83;;;25.60;55.40;;;;;;7379395;19;20066;-72
2023/07/06 12:23:35;;;;;;;13.18;2.90;;;25.70;55.80;;;;;;7398749;19;20011;-72
2023/07/06 12:26:07;;;;;;;9.27;2.67;;;25.70;55.80;;;;;;7377705;19;20058;-72
2023/07/06 12:28:38;;;;;;;9.60;2.88;;;25.70;56.30;;;;;;7377193;19;20006;-72
2023/07/06 12:31:09;;;;;;;8.73;2.90;;;25.70;56.50;;;;;;7377578;19;20289;-72
2023/07/06 12:33:38;;;;;;;6.32;2.40;;;25.70;56.50;;;;;;7377280;19;20038;-73
2023/07/06 12:36:08;;;;;;;5.93;2.22;;;25.70;55.20;;;;;;7376998;19;20023;-74
2023/07/06 12:38:37;;;;;;;6.10;2.65;;;25.80;55.40;;;;;;7399321;19;20681;-71
2023/07/06 12:41:19;;;;;;;4.22;2.20;;;25.90;56.00;;;;;;7381622;19;20062;-71
2023/07/06 12:43:53;;;;;;;6.38;2.33;;;25.90;56.00;;;;;;7388707;19;20011;-72
2023/07/06 12:46:22;;;;;;;19.52;2.50;;;26.00;55.90;;;;;;7378141;19;20373;-73
2023/07/06 12:48:55;;;;;;;4.22;2.40;;;26.10;55.60;;;;;;7378087;19;20030;-73
2023/07/06 12:51:28;;;;;;;6.05;2.85;;;26.10;54.70;;;;;;7377893;19;19999;-73
2023/07/06 12:53:59;;;;;;;3.85;2.38;;;26.00;54.80;;;;;;7379479;19;20017;-73
2023/07/06 12:56:31;;;;;;;6.43;2.40;;;25.90;54.70;;;;;;7402366;19;20013;-72
2023/07/06 12:59:04;;;;;;;7.60;2.42;;;25.70;55.20;;;;;;7376900;19;20007;-73
2023/07/06 13:01:36;;;;;;;5.30;2.60;;;25.70;55.40;;;;;;7376866;19;19998;-73
2023/07/06 13:04:08;;;;;;;9.30;2.42;;;25.60;55.60;;;;;;7377935;19;20020;-73
2023/07/06 13:06:44;;;;;;;5.78;2.60;;;25.50;55.10;;;;;;7376903;19;20079;-73
2023/07/06 13:09:19;;;;;;;8.02;2.70;;;25.50;55.00;;;;;;7383641;19;20018;-72
2023/07/06 13:11:52;;;;;;;7.10;2.58;;;25.60;55.20;;;;;;7382210;19;20011;-73